createdAt,value
2018-07-10T00:02:24.593Z,17.30
2018-07-10T00:07:37.516Z,17.20
2018-07-10T00:11:23.439Z,17.00
2018-07-10T00:14:59.812Z,16.80
2018-07-10T00:18:51.133Z,16.70
2018-07-10T00:22:27.860Z,16.60
2018-07-10T00:25:59.779Z,16.50
2018-07-10T00:29:31.131Z,16.50
2018-07-10T00:33:01.871Z,16.50
2018-07-10T00:36:35.942Z,16.50
2018-07-10T00:40:11.849Z,16.50
2018-07-10T00:43:47.019Z,16.40
2018-07-10T00:47:21.180Z,16.40
2018-07-10T00:54:32.204Z,16.40
2018-07-10T01:02:05.613Z,16.30
2018-07-10T01:05:39.400Z,16.20
2018-07-10T01:09:17.745Z,16.10
2018-07-10T01:12:50.309Z,16.10
2018-07-10T01:16:33.463Z,16.10
2018-07-10T01:20:08.090Z,16.10
2018-07-10T01:23:47.624Z,16.10
2018-07-10T01:27:24.615Z,16.00
2018-07-10T01:31:03.775Z,16.00
2018-07-10T01:34:38.306Z,16.00
2018-07-10T01:43:35.295Z,16.00
2018-07-10T01:47:13.694Z,15.90
2018-07-10T01:56:14.183Z,15.90
2018-07-10T01:59:47.215Z,15.90
2018-07-10T02:03:25.282Z,15.80
2018-07-10T02:07:01.550Z,15.60
2018-07-10T02:10:39.234Z,15.50
2018-07-10T02:18:12.084Z,15.60
2018-07-10T02:29:42.444Z,15.60
2018-07-10T02:33:26.827Z,15.50
2018-07-10T02:37:02.580Z,15.50
2018-07-10T02:40:33.299Z,15.50
2018-07-10T02:44:09.631Z,15.50
2018-07-10T02:47:48.479Z,15.40
2018-07-10T02:51:25.076Z,15.50
2018-07-10T02:54:58.855Z,15.30
2018-07-10T02:58:37.611Z,15.30
2018-07-10T03:02:15.676Z,15.30
2018-07-10T03:05:49.297Z,15.30
2018-07-10T03:09:21.062Z,15.30
2018-07-10T03:13:03.208Z,15.20
2018-07-10T03:16:37.911Z,15.20
2018-07-10T03:20:20.292Z,15.20
2018-07-10T03:23:56.577Z,15.10
2018-07-10T03:27:36.557Z,15.00
2018-07-10T03:31:15.191Z,14.90
2018-07-10T03:34:50.321Z,15.00
2018-07-10T03:38:27.072Z,14.90
2018-07-10T03:41:58.381Z,14.90
2018-07-10T03:45:31.967Z,14.90
2018-07-10T03:49:30.055Z,14.90
2018-07-10T03:53:14.309Z,14.90
2018-07-10T03:56:46.122Z,15.00
2018-07-10T04:00:17.894Z,15.10
2018-07-10T04:03:54.603Z,15.10
2018-07-10T04:07:32.351Z,15.10
2018-07-10T04:11:07.784Z,15.10
2018-07-10T04:14:46.139Z,15.00
2018-07-10T04:18:23.273Z,14.90
2018-07-10T04:22:07.628Z,14.90
2018-07-10T04:30:54.963Z,15.10
2018-07-10T04:34:30.275Z,15.10
2018-07-10T04:38:05.444Z,15.10
2018-07-10T04:41:47.422Z,15.30
2018-07-10T04:50:05.300Z,15.40
2018-07-10T04:53:48.118Z,15.20
2018-07-10T05:01:33.075Z,14.70
2018-07-10T05:05:15.794Z,14.60
2018-07-10T05:08:55.442Z,14.60
2018-07-10T05:12:35.870Z,14.80
2018-07-10T05:16:20.749Z,15.00
2018-07-10T05:19:56.764Z,15.10
2018-07-10T05:23:30.854Z,15.40
2018-07-10T05:27:06.391Z,15.40
2018-07-10T05:34:27.528Z,15.60
2018-07-10T05:38:09.639Z,15.70
2018-07-10T05:41:50.782Z,15.90
2018-07-10T05:45:27.877Z,16.00
2018-07-10T05:49:08.755Z,16.10
2018-07-10T05:52:47.993Z,16.00
2018-07-10T05:56:24.721Z,15.90
2018-07-10T06:03:59.581Z,16.30
2018-07-10T06:07:39.947Z,16.40
2018-07-10T06:11:13.737Z,16.20
2018-07-10T06:14:45.212Z,16.40
2018-07-10T06:18:28.626Z,16.40
2018-07-10T06:22:13.626Z,16.60
2018-07-10T06:25:48.354Z,16.60
2018-07-10T06:29:28.535Z,16.70
2018-07-10T06:33:22.318Z,16.80
2018-07-10T06:37:17.199Z,16.70
2018-07-10T06:41:03.816Z,16.80
2018-07-10T06:44:40.388Z,16.90
2018-07-10T06:48:22.597Z,17.00
2018-07-10T06:52:01.284Z,17.40
